Terminal Aerodrome Forecast
Issued by NWS Jackson, MS

Home | Current Version | Previous Version | Text Only | Print | Product List | Glossary On
Versions: 1 2 3 4 5 6 7 8 9 10 11 12 13 14 15 16
000
FTUS44 KMEG 300521
TAFTUP
TAF
KTUP 300521Z 3006/3106 16005KT P6SM FEW100 SCT150
      TEMPO 3010/3013 4SM BR BKN015
     FM301600 18006KT P6SM SCT040
     FM310100 15006KT P6SM BKN200=

USA.gov is the U.S. government's official web portal to all federal, state and local government web resources and services.